Time;durP1;ratioP1;P1;durP2;ratioP2;P2;SDS_P1;SDS_P2;PMS_P1;PMS_P2;Temp;Humidity;BMP_temperature;BMP_pressure;BME280_temperature;BME280_humidity;BME280_pressure;Samples;Min_cycle;Max_cycle;Signal;HPM_P1;HPM_P2
2022/01/28 00:01:01;;;;;;;94.93;57.25;;;-0.20;99.90;;;;;;5134315;27;20094;-74
2022/01/28 00:03:27;;;;;;;103.25;62.58;;;-0.30;99.90;;;;;;5134304;27;20035;-75
2022/01/28 00:05:53;;;;;;;118.25;74.40;;;-0.30;99.90;;;;;;5134080;27;20080;-76
2022/01/28 00:08:19;;;;;;;113.53;69.53;;;-0.40;99.90;;;;;;5133994;27;20034;-77
2022/01/28 00:10:45;;;;;;;92.80;59.45;;;-0.40;99.90;;;;;;5115852;27;20088;-76
2022/01/28 00:15:53;;;;;;;100.13;58.35;;;-0.40;99.90;;;;;;5133908;27;20019;-76
2022/01/28 00:39:42;;;;;;;108.72;65.35;;;-0.60;99.90;;;;;;5133840;27;20373;-78
2022/01/28 00:42:08;;;;;;;107.00;65.45;;;-0.60;99.90;;;;;;5133733;27;20103;-77
2022/01/28 00:44:34;;;;;;;110.55;67.43;;;-0.60;99.90;;;;;;5133974;27;20084;-75
2022/01/28 00:47:00;;;;;;;117.47;73.65;;;-0.60;99.90;;;;;;5133830;27;20027;-77
2022/01/28 00:49:26;;;;;;;129.95;77.63;;;-0.60;99.90;;;;;;5133629;27;20023;-77
2022/01/28 00:51:53;;;;;;;134.00;84.57;;;-0.60;99.90;;;;;;5133978;27;20023;-78
2022/01/28 00:54:19;;;;;;;144.15;85.93;;;-0.60;99.90;;;;;;5115206;27;20051;-77
2022/01/28 00:56:45;;;;;;;130.75;85.40;;;-0.60;99.90;;;;;;5133519;27;20059;-78
2022/01/28 00:59:11;;;;;;;141.52;85.43;;;-0.70;99.90;;;;;;5134148;27;20042;-76
2022/01/28 01:01:37;;;;;;;140.63;85.47;;;-0.70;99.90;;;;;;5133085;27;20023;-77
2022/01/28 01:04:04;;;;;;;145.45;86.18;;;-0.70;99.90;;;;;;5133400;27;20031;-78
2022/01/28 01:06:31;;;;;;;145.55;87.28;;;-0.80;99.90;;;;;;5133691;27;20026;-77
2022/01/28 01:08:58;;;;;;;127.63;81.85;;;-0.80;99.90;;;;;;5133335;27;20038;-77
2022/01/28 01:11:26;;;;;;;122.63;80.35;;;-0.70;99.90;;;;;;5133508;27;20015;-77
2022/01/28 01:13:53;;;;;;;141.40;83.72;;;-0.70;99.90;;;;;;5133415;27;20056;-77
2022/01/28 01:16:34;;;;;;;156.35;97.45;;;-0.70;99.90;;;;;;5115068;27;20019;-77
2022/01/28 01:19:17;;;;;;;142.93;88.07;;;-0.70;99.90;;;;;;5133162;27;20119;-77
2022/01/28 01:21:43;;;;;;;154.07;92.50;;;-0.80;99.90;;;;;;5132869;27;20038;-77
2022/01/28 01:24:19;;;;;;;152.60;90.53;;;-0.80;99.90;;;;;;5132734;27;20027;-76
2022/01/28 01:26:45;;;;;;;138.43;88.35;;;-0.80;99.90;;;;;;5133046;27;20105;-77
2022/01/28 01:29:13;;;;;;;125.43;77.85;;;-0.90;99.90;;;;;;5133351;27;20110;-73
2022/01/28 01:31:42;;;;;;;123.30;79.43;;;-0.90;99.90;;;;;;5132915;27;20023;-78
2022/01/28 01:34:15;;;;;;;129.25;75.38;;;-0.90;99.90;;;;;;5132739;27;20049;-76
2022/01/28 01:36:42;;;;;;;114.53;73.43;;;-0.90;99.90;;;;;;5133037;27;20380;-76
2022/01/28 01:39:15;;;;;;;118.07;73.80;;;-0.80;99.90;;;;;;5132918;27;20024;-76
2022/01/28 01:41:48;;;;;;;130.80;73.28;;;-0.80;99.90;;;;;;5132822;27;20476;-77
2022/01/28 01:44:31;;;;;;;118.20;72.13;;;-0.80;99.90;;;;;;5134175;27;20027;-77
2022/01/28 01:52:01;;;;;;;121.13;75.47;;;-0.70;99.90;;;;;;5132958;27;20476;-77
2022/01/28 01:52:39;;;;;;;126.55;74.55;;;-0.60;99.90;;;;;;5132873;27;20058;-72
2022/01/28 01:55:07;;;;;;;119.18;74.90;;;-0.70;99.90;;;;;;5132704;27;20050;-72
2022/01/28 01:57:34;;;;;;;118.63;75.93;;;-0.60;99.90;;;;;;5132587;27;20023;-77
2022/01/28 02:00:00;;;;;;;154.35;93.65;;;-0.50;99.90;;;;;;5132599;27;20130;-76
2022/01/28 02:02:26;;;;;;;168.32;103.47;;;-0.60;99.90;;;;;;5132392;27;20109;-75
2022/01/28 02:04:53;;;;;;;143.02;86.63;;;-0.60;99.90;;;;;;5132031;27;20012;-74
2022/01/28 02:07:20;;;;;;;130.43;84.57;;;-0.60;99.90;;;;;;5132382;28;20027;-76
2022/01/28 02:09:46;;;;;;;122.57;76.35;;;-0.60;99.90;;;;;;5132261;28;20444;-77
2022/01/28 02:12:12;;;;;;;127.50;79.57;;;-0.50;99.90;;;;;;5132408;28;20023;-76
2022/01/28 02:14:38;;;;;;;125.70;77.50;;;-0.50;99.90;;;;;;5132513;28;20475;-75
2022/01/28 02:17:05;;;;;;;138.07;83.88;;;-0.50;99.90;;;;;;5132426;28;20461;-76
2022/01/28 02:19:31;;;;;;;188.68;106.43;;;-0.60;99.90;;;;;;5132464;28;20047;-75
2022/01/28 02:21:57;;;;;;;177.88;104.65;;;-0.60;99.90;;;;;;5132504;28;20090;-76
2022/01/28 02:24:29;;;;;;;155.25;91.60;;;-0.70;99.90;;;;;;5132404;28;20053;-74
2022/01/28 02:26:55;;;;;;;153.00;90.32;;;-0.80;99.90;;;;;;5132494;28;20036;-74
2022/01/28 02:29:30;;;;;;;144.10;89.25;;;-0.70;99.90;;;;;;5132647;28;20084;-74
2022/01/28 02:31:58;;;;;;;140.35;83.10;;;-0.70;99.90;;;;;;5132241;28;20393;-75
2022/01/28 02:34:25;;;;;;;129.32;80.40;;;-0.70;99.90;;;;;;5132133;28;20023;-75
2022/01/28 02:36:51;;;;;;;134.65;87.18;;;-0.70;99.90;;;;;;5132483;28;20106;-74
2022/01/28 02:39:17;;;;;;;141.57;87.05;;;-0.70;99.90;;;;;;5132562;28;20362;-75
2022/01/28 02:41:47;;;;;;;129.38;81.70;;;-0.60;99.90;;;;;;5132043;28;20378;-75
2022/01/28 02:44:25;;;;;;;124.75;78.28;;;-0.60;99.90;;;;;;5132330;28;20050;-76
2022/01/28 02:46:58;;;;;;;129.35;82.75;;;-0.60;99.90;;;;;;5132316;28;20039;-76
2022/01/28 02:49:27;;;;;;;122.70;76.38;;;-0.70;99.90;;;;;;5132469;28;20023;-74
2022/01/28 02:51:56;;;;;;;116.72;75.72;;;-0.60;99.90;;;;;;5132324;28;20102;-75
2022/01/28 02:54:23;;;;;;;120.78;72.82;;;-0.70;99.90;;;;;;5132111;28;20461;-75
2022/01/28 02:56:52;;;;;;;115.80;73.25;;;-0.60;99.90;;;;;;5131894;28;20424;-74
2022/01/28 02:59:18;;;;;;;110.38;69.35;;;-0.50;99.90;;;;;;5132276;28;20114;-74
2022/01/28 03:01:47;;;;;;;104.70;66.25;;;-0.40;99.90;;;;;;5131766;27;20027;-73
2022/01/28 03:04:31;;;;;;;112.80;69.03;;;-0.30;99.90;;;;;;5132013;28;20034;-76
2022/01/28 03:06:57;;;;;;;112.40;66.85;;;-0.30;99.90;;;;;;5132143;28;20027;-74
2022/01/28 03:09:23;;;;;;;103.93;65.82;;;-0.20;99.90;;;;;;5131925;28;20026;-75
2022/01/28 03:12:10;;;;;;;94.35;58.10;;;-0.20;99.90;;;;;;5132046;28;20532;-76
2022/01/28 03:14:48;;;;;;;91.38;61.90;;;-0.20;99.90;;;;;;5131932;28;20030;-76
2022/01/28 03:17:38;;;;;;;94.80;60.58;;;-0.10;99.90;;;;;;5132686;27;20019;-76
2022/01/28 03:20:30;;;;;;;102.32;63.20;;;-0.10;99.90;;;;;;5135416;27;20023;-75
2022/01/28 03:22:51;;;;;;;97.78;59.97;;;-0.10;99.90;;;;;;5135520;27;20038;-77
2022/01/28 03:25:18;;;;;;;97.53;61.72;;;0.00;99.90;;;;;;5135212;27;20019;-72
2022/01/28 03:27:55;;;;;;;96.20;59.13;;;0.00;99.90;;;;;;5116269;27;20383;-76
2022/01/28 03:30:22;;;;;;;96.65;58.38;;;0.20;99.90;;;;;;5135389;27;20051;-71
2022/01/28 03:32:49;;;;;;;85.07;56.67;;;0.30;99.90;;;;;;5135173;27;20395;-78
2022/01/28 03:35:16;;;;;;;86.13;55.60;;;0.40;99.90;;;;;;5134399;27;20461;-78
2022/01/28 03:37:44;;;;;;;90.97;57.22;;;0.50;99.90;;;;;;5135077;27;20023;-74
2022/01/28 03:40:11;;;;;;;92.40;59.42;;;0.50;99.90;;;;;;5134786;27;20027;-75
2022/01/28 03:42:37;;;;;;;87.60;55.60;;;0.60;99.90;;;;;;5135074;27;20049;-73
2022/01/28 03:45:05;;;;;;;91.40;57.72;;;0.60;99.90;;;;;;5134996;27;20532;-76
2022/01/28 03:47:32;;;;;;;107.55;66.40;;;0.70;99.90;;;;;;5135099;27;20027;-74
2022/01/28 03:49:58;;;;;;;101.90;67.68;;;0.70;99.90;;;;;;5134880;27;20036;-75
2022/01/28 03:52:25;;;;;;;102.40;67.25;;;0.80;99.90;;;;;;5134933;27;20035;-71
2022/01/28 03:54:51;;;;;;;94.70;60.20;;;0.80;99.90;;;;;;5134728;27;20019;-70
2022/01/28 03:57:16;;;;;;;101.20;63.60;;;0.80;99.90;;;;;;5134818;27;20019;-71
2022/01/28 03:59:42;;;;;;;103.78;68.53;;;0.80;99.90;;;;;;5134756;27;20380;-75
2022/01/28 04:02:10;;;;;;;98.93;63.53;;;0.90;99.90;;;;;;5134333;27;20772;-75
2022/01/28 04:05:35;;;;;;;99.90;62.75;;;0.90;99.90;;;;;;5134596;27;20027;-73
2022/01/28 04:13:17;;;;;;;95.70;61.50;;;1.00;99.90;;;;;;5050747;28;20180;-72
2022/01/28 04:18:38;;;;;;;103.28;66.82;;;0.90;99.90;;;;;;5010763;28;20531;-71
2022/01/28 04:21:04;;;;;;;104.72;65.93;;;0.90;99.90;;;;;;5010535;28;20038;-76
2022/01/28 04:23:30;;;;;;;101.70;64.57;;;0.90;99.90;;;;;;5010744;28;20050;-77
2022/01/28 04:25:56;;;;;;;107.57;67.35;;;0.90;99.90;;;;;;4994843;28;20468;-75
2022/01/28 04:28:22;;;;;;;112.72;69.70;;;0.90;99.90;;;;;;5010436;28;20124;-73
2022/01/28 04:30:48;;;;;;;108.95;67.80;;;0.80;99.90;;;;;;5010527;28;20046;-75
2022/01/28 04:33:14;;;;;;;109.10;69.03;;;0.90;99.90;;;;;;5010689;28;20030;-75
2022/01/28 04:35:40;;;;;;;111.97;67.95;;;0.90;99.90;;;;;;5010326;28;20138;-74
2022/01/28 04:38:25;;;;;;;111.95;69.70;;;0.90;99.90;;;;;;5010598;28;20038;-72
2022/01/28 04:41:22;;;;;;;108.38;70.00;;;1.00;99.90;;;;;;5010258;28;20033;-72
2022/01/28 04:43:59;;;;;;;104.93;66.13;;;1.00;99.90;;;;;;4993981;28;20045;-73
2022/01/28 04:49:08;;;;;;;108.75;62.80;;;1.10;99.90;;;;;;5050017;28;20120;-74
2022/01/28 04:52:15;;;;;;;;;;;1.20;99.90;;;;;;5050703;28;20052;-73
2022/01/28 05:02:20;;;;;;;99.40;64.30;;;1.20;99.90;;;;;;5126391;27;20496;-71
2022/01/28 05:07:32;;;;;;;126.20;74.07;;;1.10;99.90;;;;;;5132866;27;20015;-75
2022/01/28 05:28:35;;;;;;;127.70;82.90;;;1.00;99.90;;;;;;5131502;27;20114;-72
2022/01/28 05:31:00;;;;;;;113.72;79.13;;;1.00;99.90;;;;;;5132799;27;20532;-73
2022/01/28 05:33:27;;;;;;;121.53;79.93;;;1.10;99.90;;;;;;5132593;27;20027;-72
2022/01/28 05:35:53;;;;;;;126.88;80.80;;;1.20;99.90;;;;;;5132270;27;20019;-72
2022/01/28 05:38:18;;;;;;;112.03;71.47;;;1.20;99.90;;;;;;5132943;27;20756;-75
2022/01/28 05:40:45;;;;;;;121.68;76.57;;;1.20;99.90;;;;;;5142200;27;20038;-74
2022/01/28 05:43:11;;;;;;;108.72;73.90;;;1.30;99.90;;;;;;5133061;27;20027;-73
2022/01/28 05:45:37;;;;;;;118.20;72.70;;;1.30;99.90;;;;;;5141537;27;20019;-73
2022/01/28 05:48:03;;;;;;;111.93;71.70;;;1.30;99.90;;;;;;5114305;27;20400;-74
2022/01/28 05:50:29;;;;;;;113.60;75.30;;;1.40;99.90;;;;;;5140407;27;20019;-74
2022/01/28 05:52:55;;;;;;;124.25;83.35;;;1.40;99.90;;;;;;5132394;27;20027;-73
2022/01/28 05:55:21;;;;;;;107.35;64.43;;;1.40;99.90;;;;;;5132154;27;20019;-73
2022/01/28 05:57:46;;;;;;;89.07;56.15;;;1.40;99.90;;;;;;5132439;27;20034;-74
2022/01/28 06:00:14;;;;;;;92.88;59.35;;;1.50;99.90;;;;;;5131851;27;20027;-74
2022/01/28 06:02:45;;;;;;;98.03;62.08;;;1.50;99.90;;;;;;5132160;27;20039;-74
2022/01/28 06:05:13;;;;;;;100.97;61.63;;;1.60;99.90;;;;;;5132284;27;20016;-76
2022/01/28 06:07:42;;;;;;;94.53;58.28;;;1.60;99.90;;;;;;5143022;28;20038;-73
2022/01/28 06:10:10;;;;;;;92.97;58.30;;;1.70;99.90;;;;;;5117527;28;20027;-75
2022/01/28 06:12:43;;;;;;;99.20;60.47;;;1.70;99.90;;;;;;5132396;28;20054;-73
2022/01/28 06:15:10;;;;;;;106.70;63.90;;;1.70;99.90;;;;;;5132364;28;20023;-75
2022/01/28 06:17:37;;;;;;;103.65;66.82;;;1.70;99.90;;;;;;5132563;28;20476;-76
2022/01/28 06:20:05;;;;;;;104.53;68.10;;;1.70;99.90;;;;;;5133273;28;20023;-75
2022/01/28 06:22:31;;;;;;;102.60;65.40;;;1.70;99.90;;;;;;5131778;28;20062;-75
2022/01/28 06:24:57;;;;;;;124.18;77.43;;;1.80;99.90;;;;;;5131983;28;20504;-76
2022/01/28 06:27:23;;;;;;;122.18;75.60;;;1.90;99.90;;;;;;5132361;28;20019;-76
2022/01/28 06:29:50;;;;;;;127.20;82.68;;;1.90;99.90;;;;;;5132154;28;20511;-75
2022/01/28 06:32:16;;;;;;;138.73;90.93;;;2.00;99.90;;;;;;5132477;27;20026;-73
2022/01/28 06:34:43;;;;;;;128.68;83.85;;;1.90;99.90;;;;;;5131564;28;20034;-75
2022/01/28 06:37:10;;;;;;;125.10;80.47;;;2.00;99.90;;;;;;5113451;28;20023;-73
2022/01/28 06:39:36;;;;;;;120.10;77.03;;;1.90;99.90;;;;;;5132188;28;20102;-73
2022/01/28 06:42:02;;;;;;;104.93;69.95;;;2.00;99.90;;;;;;5135697;28;20086;-73
2022/01/28 06:44:30;;;;;;;106.07;68.95;;;2.00;99.90;;;;;;5131074;28;20027;-75
2022/01/28 06:46:56;;;;;;;102.95;68.72;;;2.00;99.90;;;;;;5132043;28;20055;-73
2022/01/28 06:49:22;;;;;;;109.05;69.65;;;2.00;99.90;;;;;;5135062;28;20016;-76
2022/01/28 06:51:49;;;;;;;108.35;70.35;;;2.10;99.90;;;;;;5133823;27;20123;-75
2022/01/28 06:54:15;;;;;;;104.85;65.72;;;2.10;99.90;;;;;;5136156;27;20051;-74
2022/01/28 06:56:42;;;;;;;103.22;65.80;;;2.10;99.90;;;;;;5147559;27;20024;-76
2022/01/28 06:59:11;;;;;;;100.75;66.72;;;2.00;99.90;;;;;;5149086;27;20410;-78
2022/01/28 07:01:37;;;;;;;104.88;66.20;;;2.10;99.90;;;;;;5108909;27;20531;-77
2022/01/28 07:04:04;;;;;;;137.00;82.72;;;2.10;99.90;;;;;;5117374;27;20051;-77
2022/01/28 07:06:30;;;;;;;144.93;84.90;;;2.20;99.90;;;;;;5136881;27;20027;-76
2022/01/28 07:08:55;;;;;;;150.68;81.60;;;2.20;99.90;;;;;;5135460;27;20031;-77
2022/01/28 07:11:21;;;;;;;139.20;79.93;;;2.10;99.90;;;;;;5135669;27;20019;-77
2022/01/28 07:13:47;;;;;;;154.30;90.82;;;2.20;99.90;;;;;;5135718;27;20072;-74
2022/01/28 07:16:13;;;;;;;128.15;76.70;;;2.20;99.90;;;;;;5135629;27;20019;-73
2022/01/28 07:18:39;;;;;;;131.00;78.95;;;2.20;99.90;;;;;;5135808;27;20377;-75
2022/01/28 07:21:05;;;;;;;99.72;61.78;;;2.20;99.90;;;;;;5135554;27;20035;-74
2022/01/28 07:23:31;;;;;;;78.85;53.83;;;2.30;99.90;;;;;;5117017;27;20107;-76
2022/01/28 07:25:57;;;;;;;88.28;53.88;;;2.30;99.90;;;;;;5145370;27;20051;-76
2022/01/28 07:28:25;;;;;;;91.45;59.92;;;2.30;99.90;;;;;;5148844;27;20065;-76
2022/01/28 07:30:54;;;;;;;88.78;54.88;;;2.30;99.90;;;;;;5117083;27;20308;-76
2022/01/28 07:33:19;;;;;;;96.28;56.55;;;2.40;99.90;;;;;;5135406;27;20031;-76
2022/01/28 07:35:46;;;;;;;125.32;70.93;;;2.40;99.90;;;;;;5132842;27;20054;-75
2022/01/28 07:38:12;;;;;;;129.43;75.65;;;2.40;99.90;;;;;;5114283;27;20023;-75
2022/01/28 07:40:38;;;;;;;153.52;83.30;;;2.40;99.90;;;;;;5134264;27;20513;-76
2022/01/28 07:43:05;;;;;;;101.57;60.55;;;2.50;99.90;;;;;;5135082;27;20043;-75
2022/01/28 07:45:31;;;;;;;107.45;58.50;;;2.40;99.90;;;;;;5135199;27;20384;-73
2022/01/28 07:47:58;;;;;;;74.07;48.38;;;2.40;99.90;;;;;;5147513;27;20019;-75
2022/01/28 07:50:25;;;;;;;74.75;46.22;;;2.40;99.90;;;;;;5138823;27;20514;-74
2022/01/28 07:52:50;;;;;;;73.20;46.63;;;2.50;99.90;;;;;;5134914;27;20027;-75
2022/01/28 07:55:22;;;;;;;83.20;49.47;;;2.40;99.90;;;;;;5134376;27;20023;-75
2022/01/28 07:57:48;;;;;;;80.57;50.42;;;2.40;99.90;;;;;;5111229;27;20015;-73
2022/01/28 08:00:14;;;;;;;80.22;49.03;;;2.40;99.90;;;;;;5125039;27;20122;-76
2022/01/28 08:02:42;;;;;;;82.45;50.40;;;2.40;99.90;;;;;;5127789;27;20040;-74
2022/01/28 08:05:09;;;;;;;78.78;46.92;;;2.50;99.90;;;;;;5131018;27;20496;-73
2022/01/28 08:07:35;;;;;;;60.83;41.42;;;2.50;99.90;;;;;;5131331;27;20328;-76
2022/01/28 08:10:01;;;;;;;65.80;40.42;;;2.50;99.90;;;;;;5130619;27;20102;-75
2022/01/28 08:12:27;;;;;;;58.30;34.38;;;2.50;99.90;;;;;;5131223;27;20029;-74
2022/01/28 08:14:53;;;;;;;55.30;30.85;;;2.50;99.90;;;;;;5131288;27;20023;-73
2022/01/28 08:17:19;;;;;;;56.67;33.80;;;2.60;99.90;;;;;;5095782;27;20465;-74
2022/01/28 08:19:45;;;;;;;63.10;36.58;;;2.60;99.90;;;;;;5131993;27;20026;-75
2022/01/28 08:22:11;;;;;;;61.42;38.50;;;2.70;99.90;;;;;;5130961;27;20027;-74
2022/01/28 08:24:37;;;;;;;62.95;38.03;;;2.80;99.90;;;;;;5130538;27;20048;-74
2022/01/28 08:27:03;;;;;;;62.72;40.72;;;2.90;99.90;;;;;;5133169;27;20015;-74
2022/01/28 08:29:29;;;;;;;49.80;32.05;;;3.00;99.90;;;;;;5115433;27;20015;-75
2022/01/28 08:31:55;;;;;;;54.35;30.48;;;3.00;99.90;;;;;;5133727;27;20522;-73
2022/01/28 08:34:21;;;;;;;54.17;33.35;;;3.10;99.90;;;;;;5129379;27;20023;-72
2022/01/28 08:36:47;;;;;;;50.95;29.40;;;3.00;99.90;;;;;;5129223;27;20166;-75
2022/01/28 08:39:14;;;;;;;49.65;30.80;;;3.00;99.90;;;;;;5133700;27;20159;-76
2022/01/28 08:41:42;;;;;;;43.75;27.98;;;3.00;99.90;;;;;;5133176;27;20517;-75
2022/01/28 08:44:08;;;;;;;40.08;27.15;;;3.00;99.90;;;;;;5133701;27;20527;-77
2022/01/28 08:46:35;;;;;;;41.08;24.15;;;3.00;99.90;;;;;;5134079;27;20023;-76
2022/01/28 08:49:04;;;;;;;40.22;24.35;;;2.90;99.90;;;;;;5119041;27;20109;-72
2022/01/28 08:51:30;;;;;;;44.83;26.25;;;2.90;99.90;;;;;;5102847;27;20027;-74
2022/01/28 08:53:56;;;;;;;37.28;22.85;;;2.90;99.90;;;;;;5115177;27;20345;-75
2022/01/28 08:56:22;;;;;;;49.97;28.95;;;2.90;99.90;;;;;;5114321;27;20087;-75
2022/01/28 08:58:48;;;;;;;49.15;32.45;;;2.90;99.90;;;;;;5114393;27;20039;-76
2022/01/28 09:01:14;;;;;;;44.15;26.42;;;3.00;99.90;;;;;;5131741;27;20050;-75
2022/01/28 09:03:40;;;;;;;45.88;25.92;;;3.00;99.90;;;;;;5133398;27;20037;-75
2022/01/28 09:06:06;;;;;;;43.15;27.48;;;3.00;99.90;;;;;;5132202;27;20139;-75
2022/01/28 09:08:31;;;;;;;42.42;26.63;;;3.00;99.90;;;;;;5110785;27;20051;-75
2022/01/28 09:11:29;;;;;;;42.08;26.80;;;3.10;99.90;;;;;;5132334;27;20547;-76
2022/01/28 09:13:47;;;;;;;49.40;27.60;;;3.20;99.90;;;;;;5133195;27;20118;-76
2022/01/28 09:16:13;;;;;;;45.63;25.92;;;3.30;99.90;;;;;;5097900;27;20054;-76
2022/01/28 09:18:39;;;;;;;44.72;26.55;;;3.40;99.90;;;;;;5140111;27;20015;-77
2022/01/28 09:21:06;;;;;;;41.70;24.23;;;3.50;99.90;;;;;;5129313;27;20057;-76
2022/01/28 09:23:33;;;;;;;43.63;27.02;;;3.60;99.90;;;;;;5135654;27;20530;-75
2022/01/28 09:25:58;;;;;;;45.05;26.42;;;3.80;99.90;;;;;;5133280;27;20091;-74
2022/01/28 09:28:24;;;;;;;41.65;25.17;;;3.90;99.90;;;;;;5132789;27;20042;-75
2022/01/28 09:30:53;;;;;;;52.10;30.48;;;4.00;99.90;;;;;;5132470;27;20023;-76
2022/01/28 09:33:20;;;;;;;54.88;33.70;;;4.10;99.90;;;;;;5132329;27;20023;-75
2022/01/28 09:35:46;;;;;;;53.53;32.25;;;4.20;99.90;;;;;;5114083;27;20015;-74
2022/01/28 09:38:13;;;;;;;46.78;30.00;;;4.30;99.90;;;;;;5132305;27;20058;-74
2022/01/28 09:40:39;;;;;;;49.83;28.27;;;4.40;99.90;;;;;;5132062;27;20035;-74
2022/01/28 09:43:08;;;;;;;44.78;26.15;;;4.50;99.90;;;;;;5098082;27;20075;-74
2022/01/28 09:45:35;;;;;;;47.20;26.25;;;4.60;99.90;;;;;;5131481;27;20012;-73
2022/01/28 09:48:02;;;;;;;46.08;28.80;;;4.70;99.90;;;;;;5113150;27;20047;-73
2022/01/28 09:50:30;;;;;;;47.38;28.77;;;4.80;99.90;;;;;;5132082;27;20350;-72
2022/01/28 09:52:58;;;;;;;47.95;28.58;;;4.90;99.90;;;;;;5132196;27;20031;-75
2022/01/28 09:55:25;;;;;;;43.95;24.55;;;5.00;99.90;;;;;;5114535;27;20095;-74
2022/01/28 09:57:54;;;;;;;39.17;23.80;;;5.10;99.90;;;;;;5128629;27;20102;-73
2022/01/28 10:00:22;;;;;;;41.15;25.50;;;5.20;99.90;;;;;;5131732;27;20022;-75
2022/01/28 10:03:09;;;;;;;37.70;25.92;;;5.20;99.90;;;;;;5131837;27;20039;-73
2022/01/28 10:05:37;;;;;;;34.13;22.95;;;5.30;99.90;;;;;;5131593;28;20054;-72
2022/01/28 10:08:09;;;;;;;38.67;23.10;;;5.30;99.90;;;;;;5097262;28;20054;-71
2022/01/28 10:10:54;;;;;;;36.05;20.25;;;5.40;99.90;;;;;;5131928;28;20456;-73
2022/01/28 10:13:26;;;;;;;37.60;21.88;;;5.50;99.90;;;;;;5113764;28;20031;-72
2022/01/28 10:16:04;;;;;;;37.03;21.33;;;5.60;99.90;;;;;;5132166;28;20023;-72
2022/01/28 10:18:46;;;;;;;38.17;22.75;;;5.60;99.90;;;;;;5131755;28;20797;-73
2022/01/28 10:21:28;;;;;;;38.65;21.73;;;5.70;99.90;;;;;;5113698;28;20027;-72
2022/01/28 10:24:00;;;;;;;33.58;20.17;;;5.70;99.90;;;;;;5131695;28;20480;-73
2022/01/28 10:26:37;;;;;;;34.67;20.35;;;5.80;99.90;;;;;;5115032;27;20022;-73
2022/01/28 10:29:12;;;;;;;32.05;19.40;;;5.80;99.90;;;;;;5135960;27;20354;-74
2022/01/28 10:31:39;;;;;;;35.10;19.40;;;5.80;99.90;;;;;;5100830;27;20023;-73
2022/01/28 10:34:13;;;;;;;31.88;18.63;;;5.90;99.90;;;;;;5136373;27;20424;-73
2022/01/28 10:36:39;;;;;;;27.83;18.30;;;5.90;99.90;;;;;;5136090;27;20034;-75
2022/01/28 10:39:05;;;;;;;35.90;19.77;;;5.90;99.90;;;;;;5135974;27;20027;-71
2022/01/28 10:41:31;;;;;;;35.58;21.60;;;6.00;99.90;;;;;;5136177;27;20047;-75
2022/01/28 10:44:00;;;;;;;30.70;20.05;;;6.00;99.90;;;;;;5146504;27;20425;-73
2022/01/28 10:46:34;;;;;;;38.42;23.98;;;6.10;99.90;;;;;;5129398;27;20027;-74
2022/01/28 10:49:05;;;;;;;35.63;21.10;;;6.10;99.90;;;;;;5123131;27;20028;-73
2022/01/28 10:51:41;;;;;;;29.40;18.13;;;6.20;99.90;;;;;;5135960;27;20502;-73
2022/01/28 10:54:20;;;;;;;30.90;18.83;;;6.20;99.90;;;;;;5117916;27;20038;-73
2022/01/28 10:56:55;;;;;;;29.40;18.67;;;6.30;99.90;;;;;;5146927;27;20054;-74
2022/01/28 10:59:32;;;;;;;25.73;16.25;;;6.40;99.90;;;;;;5128343;27;20024;-75
2022/01/28 11:01:59;;;;;;;26.75;17.10;;;6.50;99.90;;;;;;5100785;27;20073;-74
2022/01/28 11:04:25;;;;;;;30.42;16.25;;;6.50;99.90;;;;;;5117663;27;20031;-73
2022/01/28 11:06:54;;;;;;;32.65;19.27;;;6.60;99.60;;;;;;5141287;27;20372;-74
2022/01/28 11:09:22;;;;;;;32.40;17.42;;;6.60;99.70;;;;;;5146527;27;20030;-73
2022/01/28 11:11:51;;;;;;;35.63;17.50;;;6.70;99.20;;;;;;5137968;27;20043;-73
2022/01/28 11:14:18;;;;;;;28.10;15.02;;;6.70;98.90;;;;;;5135269;27;20023;-73
2022/01/28 11:16:45;;;;;;;22.30;14.13;;;6.70;98.90;;;;;;5135782;27;20103;-73
2022/01/28 11:19:15;;;;;;;27.05;16.35;;;6.70;98.30;;;;;;5116781;27;20437;-72
2022/01/28 11:21:47;;;;;;;30.40;17.10;;;6.80;97.90;;;;;;5148947;27;20503;-73
2022/01/28 11:24:29;;;;;;;27.55;15.93;;;6.80;98.80;;;;;;5118196;27;20159;-72
2022/01/28 11:27:04;;;;;;;51.38;22.13;;;6.90;98.70;;;;;;5141630;27;20023;-73
2022/01/28 11:29:32;;;;;;;30.05;18.40;;;6.90;98.20;;;;;;5146533;27;20044;-72
2022/01/28 11:32:15;;;;;;;27.13;17.63;;;6.90;98.50;;;;;;5137994;27;20372;-73
2022/01/28 11:34:58;;;;;;;36.65;21.77;;;7.00;97.80;;;;;;5146399;27;20436;-73
2022/01/28 11:37:28;;;;;;;28.73;18.45;;;7.20;97.70;;;;;;5142611;27;20412;-74
2022/01/28 11:40:08;;;;;;;31.30;18.50;;;7.40;96.70;;;;;;5128736;27;20462;-74
2022/01/28 11:42:35;;;;;;;32.83;19.17;;;7.80;98.20;;;;;;5143129;27;20045;-73
2022/01/28 11:45:04;;;;;;;29.85;16.17;;;8.00;94.80;;;;;;5115211;27;20027;-73
2022/01/28 11:47:37;;;;;;;28.45;17.02;;;8.10;93.70;;;;;;5144299;27;20511;-72
2022/01/28 11:50:11;;;;;;;24.65;14.48;;;8.10;94.60;;;;;;5140017;27;20024;-73
2022/01/28 11:52:46;;;;;;;27.13;15.63;;;8.00;93.60;;;;;;5122022;27;20106;-73
2022/01/28 11:55:14;;;;;;;36.53;21.65;;;7.90;92.70;;;;;;5117624;27;20026;-73
2022/01/28 11:58:02;;;;;;;27.35;15.75;;;7.90;93.40;;;;;;5133858;27;20031;-73
2022/01/28 12:00:28;;;;;;;29.23;17.65;;;7.90;93.10;;;;;;5134522;27;20030;-72
2022/01/28 12:02:54;;;;;;;32.72;18.48;;;7.80;94.50;;;;;;5134570;27;20381;-72
2022/01/28 12:05:24;;;;;;;36.78;16.50;;;7.90;95.20;;;;;;5134107;27;20043;-73
2022/01/28 12:07:50;;;;;;;26.75;14.93;;;7.90;93.80;;;;;;5134167;27;20088;-73
2022/01/28 12:10:18;;;;;;;24.95;14.18;;;8.00;93.70;;;;;;5116172;27;20526;-72
2022/01/28 12:12:45;;;;;;;23.98;14.00;;;8.10;92.00;;;;;;5134403;27;20028;-72
2022/01/28 12:15:15;;;;;;;27.75;16.00;;;8.20;91.20;;;;;;5134184;27;20388;-73
2022/01/28 12:17:43;;;;;;;26.10;15.70;;;8.10;90.80;;;;;;5134378;27;20031;-72
2022/01/28 12:20:37;;;;;;;31.10;15.65;;;8.10;91.80;;;;;;5116343;27;20028;-73
2022/01/28 12:23:05;;;;;;;30.58;16.15;;;8.10;91.60;;;;;;5040195;28;20140;-73
2022/01/28 12:25:37;;;;;;;28.48;15.75;;;8.20;91.10;;;;;;5014778;28;20064;-74
2022/01/28 12:28:15;;;;;;;27.45;16.75;;;8.10;92.30;;;;;;5007946;28;20045;-73
2022/01/28 12:30:47;;;;;;;29.27;16.27;;;8.10;91.50;;;;;;5039730;28;20021;-73
2022/01/28 12:33:15;;;;;;;;;;;8.20;90.20;;;;;;5033689;28;20586;-73
2022/01/28 12:35:42;;;;;;;26.83;16.05;;;8.20;90.50;;;;;;5030432;28;20421;-71
2022/01/28 12:38:11;;;;;;;27.67;16.52;;;8.20;90.20;;;;;;5030634;28;20037;-73
2022/01/28 12:40:40;;;;;;;33.30;16.42;;;8.20;90.80;;;;;;5029962;28;20048;-73
2022/01/28 12:43:08;;;;;;;29.48;17.23;;;8.20;90.40;;;;;;5028877;28;20037;-73
2022/01/28 12:45:34;;;;;;;31.77;17.38;;;8.10;87.80;;;;;;5029864;28;20037;-72
2022/01/28 12:48:03;;;;;;;32.08;15.63;;;8.10;87.40;;;;;;5042988;28;20139;-77
2022/01/28 12:50:32;;;;;;;29.10;17.20;;;8.20;86.80;;;;;;5035765;28;20056;-74
2022/01/28 12:52:58;;;;;;;36.38;18.90;;;8.30;86.00;;;;;;5013741;28;20029;-73
2022/01/28 12:55:35;;;;;;;32.55;17.95;;;8.30;86.80;;;;;;5041612;28;20049;-74
2022/01/28 12:58:02;;;;;;;31.25;16.63;;;8.30;88.30;;;;;;5025655;28;20026;-75
2022/01/28 13:00:28;;;;;;;29.05;16.95;;;8.30;87.90;;;;;;5088134;28;20035;-73
2022/01/28 13:02:55;;;;;;;31.95;17.05;;;8.30;88.00;;;;;;5112857;28;20035;-73
2022/01/28 13:05:36;;;;;;;25.90;15.95;;;8.20;89.90;;;;;;5112602;28;20102;-70
2022/01/28 13:10:46;;;;;;;23.58;12.38;;;8.10;88.80;;;;;;5111970;28;20429;-71
2022/01/28 13:13:12;;;;;;;27.67;12.57;;;8.00;86.10;;;;;;5104936;28;20055;-72
2022/01/28 13:15:39;;;;;;;25.83;13.48;;;7.90;87.90;;;;;;5106585;28;20027;-70
2022/01/28 13:18:07;;;;;;;24.55;13.65;;;7.80;88.10;;;;;;5109044;28;20575;-72
2022/01/28 13:20:35;;;;;;;32.92;12.55;;;7.80;86.90;;;;;;5106120;28;20423;-72
2022/01/28 13:23:02;;;;;;;27.73;14.75;;;7.70;89.10;;;;;;5094125;28;20032;-73
2022/01/28 13:25:28;;;;;;;33.00;17.48;;;7.70;89.30;;;;;;5112192;28;20019;-73
2022/01/28 13:28:02;;;;;;;37.67;18.40;;;7.60;88.70;;;;;;5111944;28;20047;-73
2022/01/28 13:30:38;;;;;;;27.50;16.20;;;7.50;90.30;;;;;;5126206;27;20015;-73
2022/01/28 13:33:07;;;;;;;25.52;13.40;;;7.40;90.70;;;;;;5104740;28;20057;-69
2022/01/28 13:35:36;;;;;;;25.83;13.82;;;7.50;90.60;;;;;;5111887;28;20095;-73
2022/01/28 13:38:07;;;;;;;26.73;13.45;;;7.50;91.50;;;;;;5098038;28;20040;-70
2022/01/28 13:40:38;;;;;;;21.30;11.07;;;7.50;91.50;;;;;;5091761;28;20040;-72
2022/01/28 13:43:08;;;;;;;21.52;10.30;;;7.50;92.20;;;;;;5111107;28;20550;-73
2022/01/28 13:45:41;;;;;;;23.55;10.65;;;7.50;92.20;;;;;;5118483;27;20357;-73
2022/01/28 13:48:14;;;;;;;24.40;11.30;;;7.40;91.00;;;;;;5132588;27;20023;-74
2022/01/28 13:50:42;;;;;;;;;;;7.40;92.50;;;;;;5129529;27;20035;-72